Time;durP1;ratioP1;P1;durP2;ratioP2;P2;SDS_P1;SDS_P2;PMS_P1;PMS_P2;Temp;Humidity;BMP_temperature;BMP_pressure;BME280_temperature;BME280_humidity;BME280_pressure;Samples;Min_cycle;Max_cycle;Signal;HPM_P1;HPM_P2
2021/08/10 00:00:28;;;;;;;12.85;5.05;;;13.30;99.90;;;;;;6313281;22;20024;-95
2021/08/10 00:02:54;;;;;;;11.95;6.38;;;13.20;99.90;;;;;;6313155;22;20007;-95
2021/08/10 00:05:20;;;;;;;11.27;4.70;;;13.20;99.90;;;;;;6312732;22;20010;-96
2021/08/10 00:07:46;;;;;;;10.55;5.93;;;13.20;99.90;;;;;;6312333;22;20048;-95
2021/08/10 00:10:11;;;;;;;12.25;5.82;;;13.10;99.90;;;;;;6312194;22;20003;-95
2021/08/10 00:12:37;;;;;;;13.75;5.60;;;13.10;99.90;;;;;;6312767;22;20327;-94
2021/08/10 00:15:07;;;;;;;15.85;6.55;;;13.10;99.90;;;;;;6312609;22;19998;-95
2021/08/10 00:17:33;;;;;;;10.52;5.25;;;13.00;99.90;;;;;;6312502;22;20014;-95
2021/08/10 00:19:59;;;;;;;11.07;5.85;;;13.00;99.90;;;;;;6312236;22;20014;-94
2021/08/10 00:22:25;;;;;;;10.18;5.82;;;13.00;99.90;;;;;;6311547;22;20007;-93
2021/08/10 00:24:51;;;;;;;13.98;5.18;;;12.90;99.90;;;;;;6312099;22;20007;-94
2021/08/10 00:27:17;;;;;;;14.68;5.53;;;12.90;99.90;;;;;;6314048;22;20002;-94
2021/08/10 00:29:43;;;;;;;11.45;5.55;;;12.80;99.90;;;;;;6313817;22;20005;-95
2021/08/10 00:32:09;;;;;;;11.77;5.75;;;12.80;99.90;;;;;;6313859;22;20014;-94
2021/08/10 00:34:35;;;;;;;9.52;4.80;;;12.80;99.90;;;;;;6313765;22;20306;-94
2021/08/10 00:37:06;;;;;;;11.35;5.45;;;12.80;99.90;;;;;;6314044;22;20013;-94
2021/08/10 00:39:32;;;;;;;11.82;6.38;;;12.80;99.90;;;;;;6314531;22;20007;-95
2021/08/10 00:41:57;;;;;;;10.18;5.47;;;12.70;99.90;;;;;;6314001;22;20002;-96
2021/08/10 00:44:23;;;;;;;13.13;5.38;;;12.70;99.90;;;;;;6313610;22;20014;-95
2021/08/10 00:46:49;;;;;;;10.10;5.13;;;12.70;99.90;;;;;;6314140;22;20003;-94
2021/08/10 00:49:14;;;;;;;10.23;5.18;;;12.70;99.90;;;;;;6314182;22;20129;-93
2021/08/10 00:51:40;;;;;;;10.60;5.20;;;12.60;99.90;;;;;;6315012;22;20017;-95
2021/08/10 00:54:07;;;;;;;12.32;5.75;;;12.70;99.90;;;;;;6318425;22;19998;-93
2021/08/10 00:56:33;;;;;;;13.02;5.25;;;12.60;99.90;;;;;;6322094;22;20060;-94
2021/08/10 00:59:00;;;;;;;15.30;5.78;;;12.60;99.90;;;;;;6323928;22;20434;-95
2021/08/10 01:01:25;;;;;;;11.98;5.35;;;12.60;99.90;;;;;;6322366;22;20056;-95
2021/08/10 01:03:51;;;;;;;8.55;4.97;;;12.60;99.90;;;;;;6320668;22;20094;-94
2021/08/10 01:06:37;;;;;;;9.40;5.45;;;12.60;99.90;;;;;;6321133;22;20003;-94
2021/08/10 01:09:10;;;;;;;12.85;5.68;;;12.50;99.90;;;;;;6317092;22;20006;-96
2021/08/10 01:11:43;;;;;;;6.95;4.63;;;12.40;99.90;;;;;;6314837;22;19999;-95
2021/08/10 01:14:21;;;;;;;8.45;5.00;;;12.40;99.90;;;;;;6317404;22;20086;-95
2021/08/10 01:16:53;;;;;;;10.18;4.78;;;12.40;99.90;;;;;;6322686;22;20022;-95
2021/08/10 01:19:34;;;;;;;11.85;5.20;;;12.30;99.90;;;;;;6320393;22;20048;-94
2021/08/10 01:22:05;;;;;;;9.63;4.45;;;12.30;99.90;;;;;;6314563;22;20010;-95
2021/08/10 01:24:37;;;;;;;;;;;12.30;99.90;;;;;;6314610;22;20006;-95
2021/08/10 01:27:54;;;;;;;10.10;4.22;;;12.30;99.90;;;;;;6314315;22;19959;-95
2021/08/10 01:30:38;;;;;;;10.82;5.30;;;12.40;99.90;;;;;;6246948;22;20002;-95
2021/08/10 01:33:04;;;;;;;10.65;5.32;;;12.50;99.90;;;;;;6314064;22;20010;-96
2021/08/10 01:35:34;;;;;;;10.05;5.95;;;12.50;99.90;;;;;;6313906;22;20091;-95
2021/08/10 01:38:01;;;;;;;8.70;5.05;;;12.60;99.90;;;;;;6314016;22;20015;-94
2021/08/10 01:40:28;;;;;;;10.15;5.13;;;12.50;99.90;;;;;;6314210;22;20007;-94
2021/08/10 01:42:58;;;;;;;10.25;4.78;;;12.50;99.90;;;;;;6314245;22;20013;-96
2021/08/10 01:45:24;;;;;;;10.57;4.90;;;12.50;99.90;;;;;;6313819;22;20331;-94
2021/08/10 01:47:52;;;;;;;10.60;5.03;;;12.50;99.90;;;;;;6313565;22;20006;-94
2021/08/10 01:50:19;;;;;;;8.40;4.75;;;12.50;99.90;;;;;;6313599;22;20007;-95
2021/08/10 01:52:46;;;;;;;8.40;5.05;;;12.50;99.90;;;;;;6313990;22;20011;-96
2021/08/10 01:55:12;;;;;;;7.80;5.07;;;12.50;99.90;;;;;;6313012;22;19999;-95
2021/08/10 01:57:39;;;;;;;14.90;4.93;;;12.40;99.90;;;;;;6313511;22;20568;-96
2021/08/10 02:00:06;;;;;;;13.38;5.20;;;12.40;99.90;;;;;;6313192;22;20009;-94
2021/08/10 02:02:32;;;;;;;8.82;4.93;;;12.40;99.90;;;;;;6313224;22;20426;-94
2021/08/10 02:04:59;;;;;;;13.13;5.53;;;12.30;99.90;;;;;;6313609;22;20013;-94
2021/08/10 02:07:25;;;;;;;8.77;5.15;;;12.40;99.90;;;;;;6313441;22;20002;-95
2021/08/10 02:09:53;;;;;;;13.10;5.32;;;12.40;99.90;;;;;;6313798;22;20064;-95
2021/08/10 02:12:19;;;;;;;11.30;5.18;;;12.50;99.90;;;;;;6313263;22;20003;-95
2021/08/10 02:14:45;;;;;;;8.07;5.10;;;12.40;99.90;;;;;;6313213;22;20011;-96
2021/08/10 02:17:16;;;;;;;9.70;4.95;;;12.40;99.90;;;;;;6312446;22;20018;-94
2021/08/10 02:19:42;;;;;;;9.10;5.32;;;12.40;99.90;;;;;;6312529;22;19999;-95
2021/08/10 02:22:11;;;;;;;8.05;4.88;;;12.40;99.90;;;;;;6312870;22;20014;-95
2021/08/10 02:24:52;;;;;;;9.73;5.32;;;12.40;99.90;;;;;;6312222;22;20006;-94
2021/08/10 02:27:33;;;;;;;13.95;5.18;;;12.30;99.90;;;;;;6312765;22;20042;-95
2021/08/10 02:30:05;;;;;;;10.15;5.68;;;12.40;99.90;;;;;;6340206;22;20073;-95
2021/08/10 02:32:31;;;;;;;11.40;4.80;;;12.40;99.90;;;;;;6312571;22;20014;-96
2021/08/10 02:34:59;;;;;;;13.05;6.18;;;12.50;99.90;;;;;;6312537;22;20090;-96
2021/08/10 02:37:25;;;;;;;12.50;5.80;;;12.60;99.90;;;;;;6312433;22;20019;-96
2021/08/10 02:39:53;;;;;;;14.35;5.88;;;12.70;99.90;;;;;;6312694;22;20056;-95
2021/08/10 02:42:23;;;;;;;10.35;4.85;;;12.70;99.90;;;;;;6312722;22;20003;-95
2021/08/10 02:44:50;;;;;;;11.93;6.03;;;12.80;99.90;;;;;;6312355;22;20018;-95
2021/08/10 02:47:17;;;;;;;13.32;6.18;;;12.80;99.90;;;;;;6313612;22;20042;-95
2021/08/10 02:49:43;;;;;;;13.02;5.60;;;12.80;99.90;;;;;;6313513;22;20433;-95
2021/08/10 02:52:11;;;;;;;11.90;5.90;;;12.90;99.90;;;;;;6341525;22;20056;-95
2021/08/10 02:54:38;;;;;;;14.38;6.18;;;12.90;99.90;;;;;;6341238;22;20425;-95
2021/08/10 02:57:12;;;;;;;13.45;5.45;;;12.90;99.90;;;;;;6312563;22;20078;-96
2021/08/10 03:00:06;;;;;;;10.07;5.55;;;12.90;99.90;;;;;;6312998;22;20460;-95
2021/08/10 03:02:37;;;;;;;15.30;6.45;;;12.90;99.90;;;;;;6311850;22;20007;-94
2021/08/10 03:05:06;;;;;;;;;;;12.90;99.90;;;;;;6313223;22;20022;-96
2021/08/10 03:07:32;;;;;;;12.18;6.05;;;13.00;99.90;;;;;;6312688;22;19898;-95
2021/08/10 03:10:02;;;;;;;11.02;6.18;;;13.00;99.90;;;;;;6312576;22;20006;-95
2021/08/10 03:12:31;;;;;;;11.88;6.03;;;13.10;99.90;;;;;;6312652;22;20418;-96
2021/08/10 03:14:57;;;;;;;9.48;5.20;;;13.10;99.90;;;;;;6311822;22;20016;-95
2021/08/10 03:17:26;;;;;;;11.88;6.57;;;13.10;99.90;;;;;;6312745;22;20034;-95
2021/08/10 03:19:56;;;;;;;10.48;7.18;;;13.20;99.90;;;;;;6312766;22;19999;-95
2021/08/10 03:22:24;;;;;;;10.25;6.35;;;13.20;99.90;;;;;;6313484;22;20408;-95
2021/08/10 03:24:53;;;;;;;11.88;5.85;;;13.20;99.90;;;;;;6312841;22;20006;-95
2021/08/10 03:27:18;;;;;;;12.40;6.68;;;13.20;99.90;;;;;;6312932;22;20007;-95
2021/08/10 03:29:46;;;;;;;10.70;6.10;;;13.20;99.90;;;;;;6312406;22;20332;-94
2021/08/10 03:32:14;;;;;;;13.40;6.70;;;13.20;99.90;;;;;;6312567;22;20007;-95
2021/08/10 03:34:41;;;;;;;14.68;7.63;;;13.20;99.90;;;;;;6312869;22;19995;-95
2021/08/10 03:37:07;;;;;;;17.33;6.90;;;13.30;99.90;;;;;;6312739;22;20011;-95
2021/08/10 03:39:33;;;;;;;13.05;7.40;;;13.30;99.90;;;;;;6313457;22;20007;-95
2021/08/10 03:42:00;;;;;;;15.63;6.88;;;13.40;99.90;;;;;;6313129;22;20055;-95
2021/08/10 03:44:26;;;;;;;11.48;7.40;;;13.40;99.90;;;;;;6314075;22;20169;-95
2021/08/10 03:46:52;;;;;;;16.05;7.43;;;13.50;99.90;;;;;;6325322;22;20081;-96
2021/08/10 03:49:23;;;;;;;14.27;6.80;;;13.50;99.90;;;;;;6327147;22;19999;-94
2021/08/10 03:51:49;;;;;;;11.90;6.93;;;13.60;99.90;;;;;;6324192;22;20014;-95
2021/08/10 03:54:15;;;;;;;15.75;7.40;;;13.50;99.90;;;;;;6323854;22;20007;-95
2021/08/10 03:56:42;;;;;;;13.63;7.10;;;13.60;99.90;;;;;;6324606;22;20009;-95
2021/08/10 03:59:10;;;;;;;12.60;6.30;;;13.60;99.90;;;;;;6316458;22;20074;-95
2021/08/10 04:01:37;;;;;;;11.77;6.63;;;13.60;99.90;;;;;;6312160;22;20020;-95
2021/08/10 04:04:04;;;;;;;13.75;7.20;;;13.60;99.90;;;;;;6312310;22;20003;-95
2021/08/10 04:06:32;;;;;;;11.70;6.10;;;13.70;99.90;;;;;;6312096;22;19999;-95
2021/08/10 04:09:01;;;;;;;15.25;6.80;;;13.70;99.90;;;;;;6312697;22;20014;-94
2021/08/10 04:11:27;;;;;;;16.00;6.57;;;13.70;99.90;;;;;;6311844;22;20009;-95
2021/08/10 04:13:52;;;;;;;11.98;6.63;;;13.70;99.90;;;;;;6312188;22;20002;-94
2021/08/10 04:16:20;;;;;;;13.68;6.90;;;13.70;99.90;;;;;;6340613;22;20002;-93
2021/08/10 04:18:46;;;;;;;11.30;6.40;;;13.70;99.90;;;;;;6312410;22;20342;-95
2021/08/10 04:21:12;;;;;;;13.65;7.10;;;13.80;99.90;;;;;;6312432;22;19999;-93
2021/08/10 04:23:38;;;;;;;16.27;8.43;;;13.80;99.90;;;;;;6312418;22;20013;-94
2021/08/10 04:26:03;;;;;;;13.70;8.10;;;13.80;99.90;;;;;;6312476;22;20089;-94
2021/08/10 04:28:32;;;;;;;8.35;5.85;;;13.80;99.90;;;;;;6312558;22;20389;-94
2021/08/10 04:30:58;;;;;;;13.98;6.85;;;13.80;99.90;;;;;;6312007;22;20070;-95
2021/08/10 04:33:23;;;;;;;16.90;8.48;;;13.80;99.90;;;;;;6311767;22;20037;-94
2021/08/10 04:35:49;;;;;;;14.65;7.85;;;13.80;99.90;;;;;;6311465;22;20006;-93
2021/08/10 04:38:15;;;;;;;19.92;8.70;;;13.80;99.90;;;;;;6311792;22;20039;-95
2021/08/10 04:40:40;;;;;;;17.83;7.22;;;13.90;99.90;;;;;;6311825;22;20433;-93
2021/08/10 04:43:06;;;;;;;17.08;8.10;;;13.90;99.90;;;;;;6311789;22;20010;-95
2021/08/10 04:45:32;;;;;;;17.75;8.20;;;13.90;99.90;;;;;;6311548;22;20022;-94
2021/08/10 04:47:57;;;;;;;13.45;8.23;;;13.90;99.90;;;;;;6311644;22;20010;-95
2021/08/10 04:50:23;;;;;;;17.77;8.10;;;13.90;99.90;;;;;;6314967;22;20329;-95
2021/08/10 04:52:49;;;;;;;14.38;8.38;;;13.90;99.90;;;;;;6313075;22;20375;-95
2021/08/10 04:55:15;;;;;;;15.32;7.15;;;14.00;99.90;;;;;;6312136;22;20009;-95
2021/08/10 04:57:40;;;;;;;20.45;9.32;;;13.90;99.90;;;;;;6312135;22;20368;-95
2021/08/10 05:00:07;;;;;;;16.40;9.40;;;13.90;99.90;;;;;;6311868;22;20003;-95
2021/08/10 05:02:35;;;;;;;14.95;8.85;;;13.90;99.90;;;;;;6311672;22;20009;-95
2021/08/10 05:05:00;;;;;;;15.95;8.63;;;13.90;99.90;;;;;;6311963;22;20438;-95
2021/08/10 05:07:26;;;;;;;12.07;7.70;;;14.00;99.90;;;;;;6312139;22;19999;-96
2021/08/10 05:09:52;;;;;;;12.45;8.20;;;14.00;99.90;;;;;;6311819;22;20007;-95
2021/08/10 05:12:17;;;;;;;12.35;6.22;;;14.00;99.90;;;;;;6313371;22;20315;-94
2021/08/10 05:14:43;;;;;;;9.27;5.53;;;14.00;99.90;;;;;;6314167;22;20018;-95
2021/08/10 05:17:09;;;;;;;18.08;8.60;;;14.00;99.90;;;;;;6315724;22;20014;-95
2021/08/10 05:19:34;;;;;;;11.85;7.47;;;14.00;99.90;;;;;;6314563;22;20430;-95
2021/08/10 05:22:00;;;;;;;14.43;8.63;;;14.00;99.90;;;;;;6315563;22;20056;-96
2021/08/10 05:24:26;;;;;;;9.70;6.88;;;14.00;99.90;;;;;;6315155;22;20003;-96
2021/08/10 05:26:51;;;;;;;14.45;6.20;;;14.00;99.90;;;;;;6313341;22;20010;-94
2021/08/10 05:29:17;;;;;;;11.45;6.60;;;14.10;99.90;;;;;;6313194;22;20003;-94
2021/08/10 05:31:44;;;;;;;13.85;6.90;;;14.10;99.90;;;;;;6313886;22;20003;-95
2021/08/10 05:34:10;;;;;;;12.15;6.55;;;14.10;99.90;;;;;;6313819;22;20003;-95
2021/08/10 05:36:36;;;;;;;16.77;6.95;;;14.10;99.90;;;;;;6314583;22;20377;-96
2021/08/10 05:39:04;;;;;;;11.00;6.82;;;14.10;99.90;;;;;;6316817;22;20007;-95
2021/08/10 05:41:30;;;;;;;14.50;7.65;;;14.10;99.90;;;;;;6323797;22;20006;-95
2021/08/10 05:43:56;;;;;;;12.30;7.38;;;14.10;99.90;;;;;;6315343;22;20018;-95
2021/08/10 05:46:22;;;;;;;15.98;8.27;;;14.10;99.90;;;;;;6313871;22;20011;-95
2021/08/10 05:48:47;;;;;;;8.75;7.45;;;14.20;99.90;;;;;;6315741;22;20425;-96
2021/08/10 05:51:16;;;;;;;12.25;8.05;;;14.20;99.90;;;;;;6321037;22;20067;-95
2021/08/10 05:53:42;;;;;;;14.48;8.63;;;14.20;99.90;;;;;;6327792;22;20026;-95
2021/08/10 05:56:09;;;;;;;11.98;8.48;;;14.20;99.90;;;;;;6330376;22;20003;-95
2021/08/10 05:58:57;;;;;;;16.65;8.15;;;14.20;99.90;;;;;;6338784;22;20019;-96
2021/08/10 06:01:27;;;;;;;11.35;6.15;;;14.20;99.90;;;;;;6314529;22;20002;-96
2021/08/10 06:04:09;;;;;;;10.95;5.85;;;14.20;99.90;;;;;;6337536;22;20075;-96
2021/08/10 06:06:35;;;;;;;11.80;6.10;;;14.20;99.90;;;;;;6328512;22;20025;-94
2021/08/10 06:09:02;;;;;;;8.98;5.57;;;14.20;99.90;;;;;;6325122;22;20009;-96
2021/08/10 06:11:28;;;;;;;9.40;6.00;;;14.20;99.90;;;;;;6322793;22;19998;-95
2021/08/10 06:13:54;;;;;;;9.57;6.70;;;14.30;99.90;;;;;;6312468;22;20013;-95
2021/08/10 06:16:19;;;;;;;13.88;6.97;;;14.30;99.90;;;;;;6312121;22;20368;-96
2021/08/10 06:18:48;;;;;;;16.48;5.50;;;14.30;99.90;;;;;;6317339;22;20015;-96
2021/08/10 06:21:16;;;;;;;7.53;5.15;;;14.40;99.90;;;;;;6318907;22;19999;-95
2021/08/10 06:23:42;;;;;;;13.98;6.90;;;14.30;99.90;;;;;;6313154;22;20296;-95
2021/08/10 06:26:08;;;;;;;10.65;7.15;;;14.40;99.90;;;;;;6314291;22;19999;-94
2021/08/10 06:28:34;;;;;;;10.82;7.25;;;14.40;99.90;;;;;;6319844;22;20006;-95
2021/08/10 06:31:02;;;;;;;15.45;6.25;;;14.40;99.90;;;;;;6328130;22;20002;-95
2021/08/10 06:33:36;;;;;;;14.02;6.80;;;14.40;99.90;;;;;;6359456;22;20030;-96
2021/08/10 06:39:25;;;;;;;;;;;;;;;;;;;;;
2021/08/10 06:44:30;;;;;;;13.20;8.55;;;14.50;99.90;;;;;;6269713;22;20055;-96
2021/08/10 06:46:55;;;;;;;14.50;8.45;;;14.60;99.90;;;;;;6227102;23;20087;-95
2021/08/10 06:49:21;;;;;;;13.98;9.18;;;14.60;99.90;;;;;;6222067;23;20078;-96
2021/08/10 06:51:47;;;;;;;14.73;9.25;;;14.70;99.90;;;;;;6231957;23;20015;-95
2021/08/10 06:54:13;;;;;;;16.35;10.88;;;14.60;99.90;;;;;;6228442;23;20107;-95
2021/08/10 06:56:39;;;;;;;13.55;8.52;;;14.70;99.90;;;;;;6259526;23;20020;-95
2021/08/10 06:59:05;;;;;;;15.57;10.05;;;14.70;99.90;;;;;;6243720;23;20032;-96
2021/08/10 07:09:55;;;;;;;16.50;11.00;;;14.80;99.90;;;;;;6314998;22;20023;-95
2021/08/10 07:12:20;;;;;;;15.70;10.80;;;14.80;99.90;;;;;;6287654;22;20011;-96
2021/08/10 07:14:47;;;;;;;13.57;11.23;;;14.90;99.90;;;;;;6297304;22;20055;-96
2021/08/10 07:17:13;;;;;;;19.08;11.63;;;14.90;99.90;;;;;;6298347;22;20018;-96
2021/08/10 07:22:15;;;;;;;16.52;10.80;;;14.90;99.90;;;;;;6347645;22;20015;-95
2021/08/10 07:24:41;;;;;;;13.15;11.05;;;15.00;99.90;;;;;;6316317;22;20007;-96
2021/08/10 07:27:06;;;;;;;14.35;10.02;;;15.00;99.90;;;;;;6315753;22;20003;-95
2021/08/10 07:29:32;;;;;;;13.23;10.57;;;15.00;99.90;;;;;;6317370;22;20096;-94
2021/08/10 07:31:58;;;;;;;17.17;11.55;;;15.00;99.90;;;;;;6311767;22;20445;-92
2021/08/10 07:34:23;;;;;;;13.88;11.25;;;15.10;99.90;;;;;;6311963;22;20007;-94
2021/08/10 07:36:51;;;;;;;15.88;11.90;;;15.10;99.90;;;;;;6312563;22;20003;-95
2021/08/10 07:39:17;;;;;;;17.33;11.68;;;15.00;99.90;;;;;;6316033;22;20022;-95
2021/08/10 07:41:43;;;;;;;19.10;12.63;;;15.10;99.90;;;;;;6317830;22;20002;-94
2021/08/10 13:13:00;;;;;;;5.10;1.90;;;25.20;72.20;;;;;;6356243;22;20048;-94
2021/08/10 13:15:26;;;;;;;4.30;1.80;;;25.20;71.60;;;;;;6336658;22;20161;-94
2021/08/10 13:17:55;;;;;;;3.30;1.80;;;25.10;71.20;;;;;;6359529;22;20041;-94
2021/08/10 13:20:25;;;;;;;4.93;1.80;;;25.10;70.20;;;;;;6349298;22;19994;-94
2021/08/10 13:23:00;;;;;;;;;;;25.00;71.10;;;;;;6314181;22;20402;-94
2021/08/10 13:25:51;;;;;;;3.90;1.92;;;25.20;71.10;;;;;;6313691;22;19981;-92
2021/08/10 13:28:17;;;;;;;1.85;1.60;;;25.20;70.00;;;;;;6314883;22;20002;-93
2021/08/10 13:30:42;;;;;;;3.22;1.85;;;25.60;70.20;;;;;;6318498;22;20006;-95
2021/08/10 13:33:21;;;;;;;4.25;2.20;;;25.80;68.80;;;;;;6317464;22;20003;-96
2021/08/10 13:35:53;;;;;;;1.73;1.63;;;25.80;67.70;;;;;;6298730;22;20055;-93
2021/08/10 13:38:47;;;;;;;2.78;1.60;;;25.70;68.00;;;;;;6323502;22;20006;-96
2021/08/10 13:41:14;;;;;;;5.78;1.90;;;25.90;68.60;;;;;;6326428;22;19999;-94
2021/08/10 13:43:40;;;;;;;4.32;1.50;;;26.00;68.00;;;;;;6329808;22;20031;-94
2021/08/10 13:46:26;;;;;;;3.80;1.50;;;26.00;66.40;;;;;;6328397;22;20082;-94
2021/08/10 13:49:05;;;;;;;3.78;1.80;;;25.90;66.40;;;;;;6331109;22;20015;-94
2021/08/10 13:51:40;;;;;;;3.53;1.50;;;25.90;67.00;;;;;;6354494;22;19995;-95
2021/08/10 13:54:35;;;;;;;3.20;1.75;;;26.00;67.10;;;;;;6326329;22;20017;-95
2021/08/10 13:57:01;;;;;;;3.05;1.98;;;25.90;66.10;;;;;;6328828;22;20002;-93
2021/08/10 13:59:27;;;;;;;3.33;1.80;;;26.00;66.20;;;;;;6334012;22;20030;-94
2021/08/10 14:01:56;;;;;;;2.03;1.58;;;26.10;66.10;;;;;;6326166;22;20054;-93
2021/08/10 14:04:23;;;;;;;3.42;1.65;;;26.00;64.70;;;;;;6328453;22;19991;-96
2021/08/10 14:06:59;;;;;;;2.42;1.60;;;25.90;65.00;;;;;;6322072;22;20020;-96
2021/08/10 14:09:37;;;;;;;2.60;1.70;;;25.90;64.80;;;;;;6327445;22;20059;-95
2021/08/10 14:12:13;;;;;;;2.30;1.40;;;25.90;64.50;;;;;;6304661;22;20003;-96
2021/08/10 14:14:48;;;;;;;6.18;2.08;;;26.00;64.60;;;;;;6295147;22;19999;-96
2021/08/10 14:17:16;;;;;;;3.42;1.30;;;26.00;65.20;;;;;;6298006;22;20063;-96
2021/08/10 14:19:42;;;;;;;2.97;1.10;;;26.30;64.50;;;;;;6294594;22;20057;-95
2021/08/10 14:22:13;;;;;;;2.85;1.30;;;26.40;62.70;;;;;;6296162;22;19980;-96
2021/08/10 14:24:48;;;;;;;;;;;26.40;62.10;;;;;;6292948;22;20000;-96
2021/08/10 14:29:51;;;;;;;2.88;1.30;;;26.40;62.00;;;;;;6270714;22;20346;-95
2021/08/10 14:32:17;;;;;;;3.65;1.38;;;26.30;61.90;;;;;;6317425;22;20010;-94
2021/08/10 14:34:42;;;;;;;3.47;1.23;;;26.20;62.50;;;;;;6322137;22;20030;-96
2021/08/10 14:37:22;;;;;;;2.95;1.88;;;26.40;62.90;;;;;;6332878;22;19983;-95
2021/08/10 14:39:48;;;;;;;3.22;1.40;;;26.50;62.40;;;;;;6332829;22;20007;-96
2021/08/10 14:42:14;;;;;;;2.38;1.45;;;26.50;62.50;;;;;;6323872;22;20009;-93
2021/08/10 14:44:40;;;;;;;2.63;1.20;;;26.60;62.50;;;;;;6324666;22;20002;-94
2021/08/10 14:47:12;;;;;;;2.72;1.20;;;26.60;62.50;;;;;;6323531;22;20057;-95
2021/08/10 14:49:38;;;;;;;2.22;1.33;;;26.60;62.00;;;;;;6325752;22;20393;-96
2021/08/10 14:52:09;;;;;;;3.80;1.20;;;26.50;60.40;;;;;;6324470;22;19998;-96
2021/08/10 14:54:38;;;;;;;3.30;1.40;;;26.50;60.60;;;;;;6326242;22;20003;-95
2021/08/10 14:57:13;;;;;;;6.68;1.50;;;26.70;60.60;;;;;;6326891;22;19995;-95
2021/08/10 14:59:43;;;;;;;4.10;1.42;;;27.00;60.50;;;;;;6326456;22;20002;-94
2021/08/10 15:02:09;;;;;;;2.55;1.30;;;27.00;59.20;;;;;;6322764;22;19983;-94
2021/08/10 15:04:40;;;;;;;3.30;1.17;;;26.70;58.80;;;;;;6325332;22;20094;-95
2021/08/10 15:17:33;;;;;;;2.72;1.63;;;24.40;62.50;;;;;;6337098;22;20242;-93
2021/08/10 15:20:01;;;;;;;2.30;1.33;;;24.30;63.30;;;;;;6329049;22;20002;-94
2021/08/10 15:22:52;;;;;;;7.53;1.60;;;24.20;63.50;;;;;;6332090;22;20006;-96
2021/08/10 17:03:43;;;;;;;5.60;2.05;;;21.90;71.10;;;;;;6188489;22;21066;31
2021/08/10 17:06:09;;;;;;;1.75;1.63;;;21.70;71.40;;;;;;6155663;23;20052;-94
2021/08/10 17:08:35;;;;;;;3.63;2.08;;;21.60;71.90;;;;;;6156163;23;20441;-95
2021/08/10 17:11:00;;;;;;;4.18;2.00;;;21.60;72.20;;;;;;6151138;23;20009;-93
2021/08/10 17:13:26;;;;;;;6.13;2.13;;;21.60;72.20;;;;;;6166063;23;20012;-92
2021/08/10 17:15:52;;;;;;;4.18;1.85;;;21.70;72.20;;;;;;6165073;23;20009;-93
2021/08/10 17:18:17;;;;;;;4.53;1.65;;;21.80;72.30;;;;;;6190561;23;20020;-93
2021/08/10 17:20:46;;;;;;;4.95;1.60;;;21.80;71.90;;;;;;6190419;23;19997;-93
2021/08/10 17:23:11;;;;;;;4.10;1.80;;;21.80;72.00;;;;;;6189416;23;20099;-93
2021/08/10 17:25:41;;;;;;;4.30;1.67;;;21.70;71.80;;;;;;6162025;23;20013;-93
2021/08/10 17:28:06;;;;;;;6.85;1.75;;;21.60;71.90;;;;;;6160592;23;20519;-93
2021/08/10 17:30:34;;;;;;;4.25;1.65;;;21.60;71.90;;;;;;6186282;23;20005;-95
2021/08/10 17:33:01;;;;;;;6.18;1.98;;;21.70;72.20;;;;;;6163880;23;20005;-94
2021/08/10 17:35:27;;;;;;;3.38;1.95;;;21.70;72.20;;;;;;6166645;23;19997;-94
2021/08/10 17:38:02;;;;;;;3.65;1.92;;;21.70;72.50;;;;;;6164305;23;20017;-94
2021/08/10 17:40:30;;;;;;;2.42;1.90;;;21.70;72.80;;;;;;6166773;23;19998;-94
2021/08/10 17:42:56;;;;;;;3.67;1.90;;;21.70;72.90;;;;;;6167464;23;20012;-96
2021/08/10 17:45:22;;;;;;;4.43;1.80;;;21.60;73.00;;;;;;6166995;23;20028;-93
2021/08/10 17:47:49;;;;;;;3.53;1.80;;;21.60;73.10;;;;;;6166465;23;20005;-93
2021/08/10 17:50:16;;;;;;;2.30;1.60;;;21.60;73.20;;;;;;6191597;23;19997;-95
2021/08/10 17:52:42;;;;;;;2.25;1.80;;;21.60;73.10;;;;;;6140390;23;20076;-94
2021/08/10 17:55:09;;;;;;;3.55;2.20;;;21.60;73.40;;;;;;6165597;23;20001;-96
2021/08/10 17:57:35;;;;;;;2.08;1.77;;;21.60;73.40;;;;;;6165293;23;20005;-94
2021/08/10 18:00:02;;;;;;;2.70;1.60;;;21.60;73.50;;;;;;6189630;23;20044;-93
2021/08/10 18:02:28;;;;;;;2.90;1.92;;;21.50;73.60;;;;;;6164886;23;20005;-94
2021/08/10 18:04:53;;;;;;;4.95;1.92;;;21.50;74.00;;;;;;6188996;23;20341;-93
2021/08/10 18:07:19;;;;;;;8.65;1.85;;;21.40;74.00;;;;;;6195465;23;20008;-93
2021/08/10 18:09:45;;;;;;;4.25;2.10;;;21.40;74.00;;;;;;6172372;23;20001;-93
2021/08/10 18:12:11;;;;;;;2.13;1.70;;;21.30;74.50;;;;;;6174295;23;20009;-93
2021/08/10 18:14:37;;;;;;;2.50;2.20;;;21.30;74.80;;;;;;6198089;23;20010;-94
2021/08/10 18:17:03;;;;;;;4.78;2.17;;;21.20;74.90;;;;;;6198330;23;20068;-93
2021/08/10 18:19:29;;;;;;;5.80;2.25;;;21.10;75.20;;;;;;6195897;23;20028;-94
2021/08/10 18:21:55;;;;;;;2.45;2.00;;;21.00;75.60;;;;;;6166953;23;20001;-93
2021/08/10 18:24:21;;;;;;;2.35;2.10;;;21.00;76.20;;;;;;6190658;23;20009;-94
2021/08/10 18:26:47;;;;;;;3.92;2.17;;;20.90;76.50;;;;;;6164448;23;20047;-94
2021/08/10 18:29:13;;;;;;;4.53;2.15;;;20.90;77.00;;;;;;6160908;23;20033;-92
2021/08/10 18:31:38;;;;;;;3.00;1.92;;;20.90;76.90;;;;;;6159281;23;20020;-93
2021/08/10 18:34:04;;;;;;;4.38;2.47;;;20.70;77.00;;;;;;6161635;23;20004;-93
2021/08/10 18:36:30;;;;;;;3.63;2.35;;;20.60;77.40;;;;;;6186867;23;20015;-93
2021/08/10 18:38:58;;;;;;;7.13;2.10;;;20.50;77.80;;;;;;6189038;23;20333;-93
2021/08/10 18:41:24;;;;;;;3.95;2.53;;;20.40;78.30;;;;;;6187156;23;20307;-92
2021/08/10 18:43:49;;;;;;;4.05;1.95;;;20.30;78.70;;;;;;6160543;23;20085;-93
2021/08/10 18:46:15;;;;;;;3.92;2.50;;;20.20;79.10;;;;;;6160752;23;20001;-94
2021/08/10 18:48:40;;;;;;;6.10;2.20;;;20.20;79.60;;;;;;6160640;23;20040;-96
2021/08/10 18:51:07;;;;;;;8.23;2.47;;;20.10;80.00;;;;;;6164498;23;20008;-94
2021/08/10 18:53:33;;;;;;;6.80;2.17;;;20.10;80.40;;;;;;6165219;23;20076;-93
2021/08/10 18:55:59;;;;;;;6.72;2.40;;;20.00;80.90;;;;;;6191943;23;20001;-95
2021/08/10 18:58:25;;;;;;;9.32;2.70;;;19.90;81.20;;;;;;6164900;23;20067;-93
2021/08/10 19:00:51;;;;;;;7.97;2.40;;;19.90;82.00;;;;;;6189028;23;20014;-94
2021/08/10 19:03:17;;;;;;;4.32;2.40;;;19.80;82.50;;;;;;6163657;23;20009;-94
2021/08/10 19:05:43;;;;;;;6.68;2.92;;;19.70;82.80;;;;;;6179405;23;20024;-94
2021/08/10 19:08:08;;;;;;;3.15;2.33;;;19.70;83.50;;;;;;6186544;23;20024;-95
2021/08/10 19:10:34;;;;;;;5.20;2.30;;;19.60;84.10;;;;;;6187440;23;20013;-93
2021/08/10 19:13:00;;;;;;;4.32;2.33;;;19.50;84.70;;;;;;6188133;23;20001;-94
2021/08/10 19:15:27;;;;;;;4.32;2.50;;;19.50;85.50;;;;;;6217247;23;20047;-94
2021/08/10 19:17:52;;;;;;;4.40;2.38;;;19.50;86.20;;;;;;6189901;23;20013;-95
2021/08/10 19:20:19;;;;;;;5.18;2.53;;;19.40;86.50;;;;;;6188124;23;20100;-94
2021/08/10 19:22:44;;;;;;;4.65;2.50;;;19.30;86.80;;;;;;6189351;23;20008;-94
2021/08/10 19:25:10;;;;;;;4.90;2.80;;;19.30;87.50;;;;;;6189423;23;20005;-94
2021/08/10 19:27:36;;;;;;;3.38;2.10;;;19.30;87.90;;;;;;6187395;23;20463;-94
2021/08/10 19:30:03;;;;;;;4.55;2.47;;;19.20;88.50;;;;;;6210581;23;20005;-94
2021/08/10 19:32:28;;;;;;;3.38;2.10;;;19.20;89.00;;;;;;6184113;23;20016;-93
2021/08/10 19:34:54;;;;;;;5.25;2.40;;;19.20;89.50;;;;;;6186683;23;20001;-94
2021/08/10 19:37:21;;;;;;;5.28;2.40;;;19.20;90.00;;;;;;6190513;23;20561;-95
2021/08/10 19:39:47;;;;;;;4.82;1.88;;;19.10;90.10;;;;;;6187964;23;20016;-93
2021/08/10 19:42:13;;;;;;;4.80;2.38;;;19.10;90.30;;;;;;6197122;23;20080;-95
2021/08/10 19:44:38;;;;;;;5.75;2.40;;;19.10;90.40;;;;;;6184459;23;20036;-94
2021/08/10 19:47:04;;;;;;;4.93;2.45;;;19.10;90.60;;;;;;6184738;23;20337;-95
2021/08/10 19:49:34;;;;;;;5.13;2.47;;;19.00;90.70;;;;;;6183538;23;20004;-94
2021/08/10 19:52:00;;;;;;;3.45;2.28;;;19.00;90.80;;;;;;6186701;23;20028;-95
2021/08/10 19:54:28;;;;;;;5.68;2.33;;;19.00;91.00;;;;;;6188075;23;20009;-94
2021/08/10 19:56:54;;;;;;;4.32;2.70;;;19.00;91.10;;;;;;6189567;23;20456;-94
2021/08/10 19:59:20;;;;;;;7.05;2.30;;;18.90;91.20;;;;;;6216092;23;20017;-94
2021/08/10 20:01:46;;;;;;;4.95;2.20;;;18.90;91.30;;;;;;6196999;23;20005;-94
2021/08/10 20:04:12;;;;;;;5.82;2.60;;;18.80;91.50;;;;;;6191155;23;20076;-94
2021/08/10 20:06:38;;;;;;;4.20;2.40;;;18.80;91.60;;;;;;6159168;23;20005;-93
2021/08/10 20:09:04;;;;;;;5.32;2.70;;;18.70;91.80;;;;;;6160883;23;20075;-94
2021/08/10 20:11:31;;;;;;;8.32;2.88;;;18.70;91.90;;;;;;6162368;23;20084;-95
2021/08/10 20:13:56;;;;;;;4.45;2.40;;;18.60;92.10;;;;;;6161712;23;20381;-95
2021/08/10 20:16:23;;;;;;;6.60;3.00;;;18.50;92.20;;;;;;6164687;23;20012;-95
2021/08/10 20:18:49;;;;;;;5.43;3.38;;;18.50;92.30;;;;;;6163745;23;20108;-94
2021/08/10 20:21:14;;;;;;;7.47;3.13;;;18.30;92.50;;;;;;6162258;23;20001;-95
2021/08/10 20:23:40;;;;;;;6.35;3.28;;;18.20;92.70;;;;;;6158754;23;20068;-94